sensor_id;sensor_type;location;lat;lon;timestamp;pressure;altitude;pressure_sealevel;temperature;humidity
19457;BME280;9867;48.094;11.478;2023-02-01T00:00:57;95728.38;;;3.24;100.00
19457;BME280;9867;48.094;11.478;2023-02-01T00:03:24;95732.50;;;3.25;100.00
19457;BME280;9867;48.094;11.478;2023-02-01T00:05:57;95733.56;;;3.22;100.00
19457;BME280;9867;48.094;11.478;2023-02-01T00:08:23;95719.69;;;3.26;100.00
19457;BME280;9867;48.094;11.478;2023-02-01T00:10:57;95716.72;;;3.31;100.00
19457;BME280;9867;48.094;11.478;2023-02-01T00:13:24;95718.19;;;3.33;100.00
19457;BME280;9867;48.094;11.478;2023-02-01T00:15:50;95716.44;;;3.34;100.00
19457;BME280;9867;48.094;11.478;2023-02-01T00:18:17;95713.78;;;3.35;100.00
19457;BME280;9867;48.094;11.478;2023-02-01T00:20:45;95706.72;;;3.39;100.00
19457;BME280;9867;48.094;11.478;2023-02-01T00:23:11;95710.03;;;3.39;100.00
19457;BME280;9867;48.094;11.478;2023-02-01T00:25:38;95717.25;;;3.44;100.00
19457;BME280;9867;48.094;11.478;2023-02-01T00:28:05;95716.44;;;3.43;100.00
19457;BME280;9867;48.094;11.478;2023-02-01T00:30:31;95718.28;;;3.51;100.00
19457;BME280;9867;48.094;11.478;2023-02-01T00:32:58;95713.63;;;3.47;100.00
19457;BME280;9867;48.094;11.478;2023-02-01T00:35:25;95697.47;;;3.48;100.00
19457;BME280;9867;48.094;11.478;2023-02-01T00:37:51;95704.44;;;3.46;100.00
19457;BME280;9867;48.094;11.478;2023-02-01T00:40:18;95698.69;;;3.43;100.00
19457;BME280;9867;48.094;11.478;2023-02-01T00:42:45;95702.16;;;3.42;100.00
19457;BME280;9867;48.094;11.478;2023-02-01T00:45:11;95725.13;;;3.41;100.00
19457;BME280;9867;48.094;11.478;2023-02-01T00:47:37;95706.84;;;3.37;100.00
19457;BME280;9867;48.094;11.478;2023-02-01T00:50:04;95706.31;;;3.34;100.00
19457;BME280;9867;48.094;11.478;2023-02-01T00:52:32;95708.22;;;3.22;100.00
19457;BME280;9867;48.094;11.478;2023-02-01T00:54:58;95694.41;;;3.07;100.00
19457;BME280;9867;48.094;11.478;2023-02-01T00:57:25;95710.66;;;3.04;100.00
19457;BME280;9867;48.094;11.478;2023-02-01T00:59:51;95696.13;;;2.87;100.00
19457;BME280;9867;48.094;11.478;2023-02-01T01:02:18;95680.41;;;2.84;100.00
19457;BME280;9867;48.094;11.478;2023-02-01T01:04:44;95683.59;;;2.86;100.00
19457;BME280;9867;48.094;11.478;2023-02-01T01:07:10;95686.56;;;2.81;100.00
19457;BME280;9867;48.094;11.478;2023-02-01T01:09:38;95684.03;;;2.81;100.00
19457;BME280;9867;48.094;11.478;2023-02-01T01:12:04;95678.44;;;2.78;100.00
19457;BME280;9867;48.094;11.478;2023-02-01T01:14:31;95706.56;;;2.74;100.00
19457;BME280;9867;48.094;11.478;2023-02-01T01:16:58;95685.75;;;2.81;100.00
19457;BME280;9867;48.094;11.478;2023-02-01T01:19:24;95688.97;;;2.73;100.00
19457;BME280;9867;48.094;11.478;2023-02-01T01:21:51;95691.50;;;2.73;100.00
19457;BME280;9867;48.094;11.478;2023-02-01T01:24:17;95674.56;;;2.73;100.00
19457;BME280;9867;48.094;11.478;2023-02-01T01:26:44;95676.97;;;2.65;100.00
19457;BME280;9867;48.094;11.478;2023-02-01T01:29:10;95682.97;;;2.45;100.00
19457;BME280;9867;48.094;11.478;2023-02-01T01:31:37;95691.88;;;2.39;100.00
19457;BME280;9867;48.094;11.478;2023-02-01T01:34:03;95664.44;;;2.35;100.00
19457;BME280;9867;48.094;11.478;2023-02-01T01:36:30;95690.81;;;2.32;100.00
19457;BME280;9867;48.094;11.478;2023-02-01T01:38:57;95656.44;;;2.20;100.00
19457;BME280;9867;48.094;11.478;2023-02-01T01:41:25;95672.28;;;2.13;100.00
19457;BME280;9867;48.094;11.478;2023-02-01T01:43:57;95664.53;;;2.14;100.00
19457;BME280;9867;48.094;11.478;2023-02-01T01:46:28;95648.06;;;2.10;100.00
19457;BME280;9867;48.094;11.478;2023-02-01T01:49:01;95648.72;;;2.12;100.00
19457;BME280;9867;48.094;11.478;2023-02-01T01:51:30;95654.56;;;2.03;100.00
19457;BME280;9867;48.094;11.478;2023-02-01T01:54:01;95636.69;;;1.95;100.00
19457;BME280;9867;48.094;11.478;2023-02-01T01:56:30;95631.38;;;1.98;100.00
19457;BME280;9867;48.094;11.478;2023-02-01T01:58:59;95621.53;;;2.04;100.00
19457;BME280;9867;48.094;11.478;2023-02-01T02:01:26;95613.53;;;1.99;100.00
19457;BME280;9867;48.094;11.478;2023-02-01T02:03:53;95622.06;;;2.08;100.00
19457;BME280;9867;48.094;11.478;2023-02-01T02:06:28;95611.94;;;1.98;100.00
19457;BME280;9867;48.094;11.478;2023-02-01T02:08:56;95610.91;;;2.11;100.00
19457;BME280;9867;48.094;11.478;2023-02-01T02:11:22;95607.97;;;2.05;100.00
19457;BME280;9867;48.094;11.478;2023-02-01T02:13:51;95615.66;;;2.14;100.00
19457;BME280;9867;48.094;11.478;2023-02-01T02:17:00;95621.25;;;2.17;100.00
19457;BME280;9867;48.094;11.478;2023-02-01T02:22:45;95633.13;;;2.26;100.00
19457;BME280;9867;48.094;11.478;2023-02-01T02:25:37;95634.34;;;2.32;100.00
19457;BME280;9867;48.094;11.478;2023-02-01T02:28:22;95639.50;;;2.40;100.00
19457;BME280;9867;48.094;11.478;2023-02-01T02:31:04;95640.06;;;2.34;100.00
19457;BME280;9867;48.094;11.478;2023-02-01T02:33:54;95642.59;;;2.34;100.00
19457;BME280;9867;48.094;11.478;2023-02-01T02:36:30;95655.25;;;2.44;100.00
19457;BME280;9867;48.094;11.478;2023-02-01T02:39:05;95642.72;;;2.42;100.00
19457;BME280;9867;48.094;11.478;2023-02-01T02:41:41;95646.31;;;2.49;100.00
19457;BME280;9867;48.094;11.478;2023-02-01T02:44:37;95642.31;;;2.47;100.00
19457;BME280;9867;48.094;11.478;2023-02-01T02:47:31;95641.25;;;2.49;100.00
19457;BME280;9867;48.094;11.478;2023-02-01T02:50:06;95644.59;;;2.50;100.00
19457;BME280;9867;48.094;11.478;2023-02-01T02:52:57;95637.00;;;2.50;100.00
19457;BME280;9867;48.094;11.478;2023-02-01T02:55:44;95627.00;;;2.48;100.00
19457;BME280;9867;48.094;11.478;2023-02-01T02:58:12;95628.59;;;2.49;100.00
19457;BME280;9867;48.094;11.478;2023-02-01T03:00:58;95626.88;;;2.50;100.00
19457;BME280;9867;48.094;11.478;2023-02-01T03:03:43;95626.72;;;2.51;100.00
19457;BME280;9867;48.094;11.478;2023-02-01T03:06:32;95627.00;;;2.48;100.00
19457;BME280;9867;48.094;11.478;2023-02-01T03:09:02;95627.66;;;2.50;100.00
19457;BME280;9867;48.094;11.478;2023-02-01T03:11:31;95615.94;;;2.59;100.00
19457;BME280;9867;48.094;11.478;2023-02-01T03:14:14;95635.91;;;2.62;100.00
19457;BME280;9867;48.094;11.478;2023-02-01T03:16:46;95618.69;;;2.65;100.00
19457;BME280;9867;48.094;11.478;2023-02-01T03:19:19;95608.84;;;2.62;100.00
19457;BME280;9867;48.094;11.478;2023-02-01T03:21:50;95625.38;;;2.66;100.00
19457;BME280;9867;48.094;11.478;2023-02-01T03:24:23;95617.63;;;2.68;100.00
19457;BME280;9867;48.094;11.478;2023-02-01T03:27:04;95604.44;;;2.74;100.00
19457;BME280;9867;48.094;11.478;2023-02-01T03:29:37;95619.63;;;2.64;100.00
19457;BME280;9867;48.094;11.478;2023-02-01T03:32:07;95622.31;;;2.72;100.00
19457;BME280;9867;48.094;11.478;2023-02-01T03:34:35;95615.22;;;2.76;100.00
19457;BME280;9867;48.094;11.478;2023-02-01T03:37:05;95612.16;;;2.72;100.00
19457;BME280;9867;48.094;11.478;2023-02-01T03:39:35;95613.78;;;2.73;100.00
19457;BME280;9867;48.094;11.478;2023-02-01T03:42:05;95606.69;;;2.77;100.00
19457;BME280;9867;48.094;11.478;2023-02-01T03:44:37;95615.75;;;2.80;100.00
19457;BME280;9867;48.094;11.478;2023-02-01T03:47:08;95603.63;;;2.83;100.00
19457;BME280;9867;48.094;11.478;2023-02-01T03:49:38;95610.13;;;2.86;100.00
19457;BME280;9867;48.094;11.478;2023-02-01T03:52:11;95597.59;;;2.84;100.00
19457;BME280;9867;48.094;11.478;2023-02-01T03:54:42;95604.69;;;2.81;100.00
19457;BME280;9867;48.094;11.478;2023-02-01T03:57:13;95606.53;;;2.88;100.00
19457;BME280;9867;48.094;11.478;2023-02-01T03:59:40;95609.91;;;2.79;100.00
19457;BME280;9867;48.094;11.478;2023-02-01T04:02:07;95598.00;;;2.89;100.00
19457;BME280;9867;48.094;11.478;2023-02-01T04:04:35;95616.91;;;2.95;100.00
19457;BME280;9867;48.094;11.478;2023-02-01T04:07:01;95607.31;;;2.89;100.00
19457;BME280;9867;48.094;11.478;2023-02-01T04:09:29;95632.53;;;2.90;100.00
19457;BME280;9867;48.094;11.478;2023-02-01T04:11:55;95624.78;;;2.92;100.00
19457;BME280;9867;48.094;11.478;2023-02-01T04:14:22;95604.38;;;2.93;100.00
19457;BME280;9867;48.094;11.478;2023-02-01T04:16:48;95610.25;;;2.94;100.00
19457;BME280;9867;48.094;11.478;2023-02-01T04:19:15;95620.78;;;2.89;100.00
19457;BME280;9867;48.094;11.478;2023-02-01T04:21:41;95611.59;;;2.88;100.00
19457;BME280;9867;48.094;11.478;2023-02-01T04:24:07;95620.00;;;2.89;100.00
19457;BME280;9867;48.094;11.478;2023-02-01T04:26:35;95603.59;;;2.93;100.00
19457;BME280;9867;48.094;11.478;2023-02-01T04:29:01;95603.59;;;2.93;100.00
19457;BME280;9867;48.094;11.478;2023-02-01T04:31:28;95609.31;;;2.95;100.00
19457;BME280;9867;48.094;11.478;2023-02-01T04:33:55;95587.44;;;2.94;100.00
19457;BME280;9867;48.094;11.478;2023-02-01T04:36:23;95602.25;;;2.98;100.00
19457;BME280;9867;48.094;11.478;2023-02-01T04:38:50;95612.13;;;2.92;100.00
19457;BME280;9867;48.094;11.478;2023-02-01T04:41:16;95593.84;;;2.88;100.00
19457;BME280;9867;48.094;11.478;2023-02-01T04:43:45;95592.78;;;2.91;100.00
19457;BME280;9867;48.094;11.478;2023-02-01T04:46:11;95599.44;;;2.92;100.00
19457;BME280;9867;48.094;11.478;2023-02-01T04:48:38;95597.19;;;2.89;100.00
19457;BME280;9867;48.094;11.478;2023-02-01T04:51:04;95609.72;;;2.90;100.00
19457;BME280;9867;48.094;11.478;2023-02-01T04:53:31;95611.03;;;2.94;100.00
19457;BME280;9867;48.094;11.478;2023-02-01T04:55:57;95604.00;;;2.88;100.00
19457;BME280;9867;48.094;11.478;2023-02-01T04:58:24;95614.91;;;2.89;100.00
19457;BME280;9867;48.094;11.478;2023-02-01T05:00:51;95608.25;;;2.88;100.00
19457;BME280;9867;48.094;11.478;2023-02-01T05:03:17;95602.38;;;2.97;100.00
19457;BME280;9867;48.094;11.478;2023-02-01T05:05:44;95614.91;;;2.89;100.00
19457;BME280;9867;48.094;11.478;2023-02-01T05:08:10;95604.25;;;2.85;100.00
19457;BME280;9867;48.094;11.478;2023-02-01T05:10:37;95596.38;;;2.88;100.00
19457;BME280;9867;48.094;11.478;2023-02-01T05:13:03;95612.53;;;2.87;100.00
19457;BME280;9867;48.094;11.478;2023-02-01T05:15:57;95613.06;;;2.91;100.00
19457;BME280;9867;48.094;11.478;2023-02-01T05:18:23;95599.06;;;2.87;100.00
19457;BME280;9867;48.094;11.478;2023-02-01T05:20:50;95606.53;;;2.88;100.00
19457;BME280;9867;48.094;11.478;2023-02-01T05:23:16;95618.41;;;2.88;100.00
19457;BME280;9867;48.094;11.478;2023-02-01T05:25:42;95599.97;;;2.95;100.00
19457;BME280;9867;48.094;11.478;2023-02-01T05:28:09;95609.44;;;2.93;100.00
19457;BME280;9867;48.094;11.478;2023-02-01T05:30:35;95602.13;;;2.90;100.00
19457;BME280;9867;48.094;11.478;2023-02-01T05:33:03;95613.44;;;2.96;100.00
19457;BME280;9867;48.094;11.478;2023-02-01T05:35:30;95620.38;;;2.94;100.00
19457;BME280;9867;48.094;11.478;2023-02-01T05:37:56;95627.97;;;2.94;100.00
19457;BME280;9867;48.094;11.478;2023-02-01T05:40:22;95611.97;;;2.93;100.00
19457;BME280;9867;48.094;11.478;2023-02-01T05:42:49;95588.09;;;2.96;100.00
19457;BME280;9867;48.094;11.478;2023-02-01T05:45:16;95615.97;;;2.96;100.00
19457;BME280;9867;48.094;11.478;2023-02-01T05:47:42;95604.50;;;2.92;100.00
19457;BME280;9867;48.094;11.478;2023-02-01T05:50:10;95603.44;;;2.94;100.00
19457;BME280;9867;48.094;11.478;2023-02-01T05:52:36;95600.13;;;2.94;100.00
19457;BME280;9867;48.094;11.478;2023-02-01T05:55:03;95593.44;;;2.93;100.00
19457;BME280;9867;48.094;11.478;2023-02-01T05:57:30;95629.72;;;2.93;100.00
19457;BME280;9867;48.094;11.478;2023-02-01T05:59:56;95618.91;;;3.01;100.00
19457;BME280;9867;48.094;11.478;2023-02-01T06:02:25;95596.66;;;2.95;100.00
19457;BME280;9867;48.094;11.478;2023-02-01T06:04:51;95620.13;;;2.97;100.00
19457;BME280;9867;48.094;11.478;2023-02-01T06:07:18;95598.91;;;2.98;100.00
19457;BME280;9867;48.094;11.478;2023-02-01T06:09:45;95596.22;;;2.99;100.00
19457;BME280;9867;48.094;11.478;2023-02-01T06:12:11;95584.91;;;2.94;100.00
19457;BME280;9867;48.094;11.478;2023-02-01T06:14:38;95582.91;;;2.97;100.00
19457;BME280;9867;48.094;11.478;2023-02-01T06:17:04;95589.44;;;3.00;100.00
19457;BME280;9867;48.094;11.478;2023-02-01T06:19:32;95609.97;;;2.97;100.00
19457;BME280;9867;48.094;11.478;2023-02-01T06:21:58;95601.84;;;2.93;100.00
19457;BME280;9867;48.094;11.478;2023-02-01T06:24:25;95603.06;;;2.89;100.00
19457;BME280;9867;48.094;11.478;2023-02-01T06:26:51;95588.50;;;2.91;100.00
19457;BME280;9867;48.094;11.478;2023-02-01T06:29:18;95613.84;;;2.91;100.00
19457;BME280;9867;48.094;11.478;2023-02-01T06:31:44;95597.31;;;2.97;100.00
19457;BME280;9867;48.094;11.478;2023-02-01T06:34:11;95595.31;;;3.00;100.00
19457;BME280;9867;48.094;11.478;2023-02-01T06:36:37;95598.50;;;3.02;100.00
19457;BME280;9867;48.094;11.478;2023-02-01T06:39:04;95623.97;;;3.01;100.00
19457;BME280;9867;48.094;11.478;2023-02-01T06:41:31;95628.50;;;3.34;100.00
19457;BME280;9867;48.094;11.478;2023-02-01T06:44:00;95610.31;;;3.49;100.00
19457;BME280;9867;48.094;11.478;2023-02-01T06:46:26;95621.69;;;3.45;100.00
19457;BME280;9867;48.094;11.478;2023-02-01T06:48:53;95586.06;;;3.64;100.00
19457;BME280;9867;48.094;11.478;2023-02-01T06:51:21;95605.38;;;3.47;100.00
19457;BME280;9867;48.094;11.478;2023-02-01T06:53:47;95599.00;;;3.43;100.00
19457;BME280;9867;48.094;11.478;2023-02-01T06:56:14;95595.66;;;3.42;100.00
19457;BME280;9867;48.094;11.478;2023-02-01T06:58:41;95590.72;;;3.41;100.00
19457;BME280;9867;48.094;11.478;2023-02-01T07:01:09;95598.84;;;3.45;100.00
19457;BME280;9867;48.094;11.478;2023-02-01T07:03:36;95600.91;;;3.59;100.00
19457;BME280;9867;48.094;11.478;2023-02-01T07:06:03;95599.22;;;3.50;100.00
19457;BME280;9867;48.094;11.478;2023-02-01T07:08:31;95592.94;;;3.54;100.00
19457;BME280;9867;48.094;11.478;2023-02-01T07:11:01;95582.41;;;3.49;100.00
19457;BME280;9867;48.094;11.478;2023-02-01T07:13:27;95593.13;;;3.42;100.00
19457;BME280;9867;48.094;11.478;2023-02-01T07:15:57;95603.69;;;3.38;100.00
19457;BME280;9867;48.094;11.478;2023-02-01T07:18:24;95616.97;;;3.22;100.00
19457;BME280;9867;48.094;11.478;2023-02-01T07:20:50;95611.50;;;3.17;100.00
19457;BME280;9867;48.094;11.478;2023-02-01T07:23:17;95597.38;;;3.15;100.00
19457;BME280;9867;48.094;11.478;2023-02-01T07:25:44;95569.50;;;3.15;100.00
19457;BME280;9867;48.094;11.478;2023-02-01T07:28:10;95576.44;;;3.13;100.00
19457;BME280;9867;48.094;11.478;2023-02-01T07:30:36;95584.84;;;3.13;100.00
19457;BME280;9867;48.094;11.478;2023-02-01T07:33:03;95579.50;;;3.16;100.00
19457;BME280;9867;48.094;11.478;2023-02-01T07:35:30;95579.34;;;3.18;100.00
19457;BME280;9867;48.094;11.478;2023-02-01T07:37:57;95588.03;;;3.15;100.00
19457;BME280;9867;48.094;11.478;2023-02-01T07:40:24;95578.13;;;3.22;100.00
19457;BME280;9867;48.094;11.478;2023-02-01T07:42:54;95577.34;;;3.21;100.00
19457;BME280;9867;48.094;11.478;2023-02-01T07:45:20;95577.34;;;3.21;100.00
19457;BME280;9867;48.094;11.478;2023-02-01T07:47:47;95567.72;;;3.25;100.00
19457;BME280;9867;48.094;11.478;2023-02-01T07:50:15;95564.91;;;3.28;100.00
19457;BME280;9867;48.094;11.478;2023-02-01T07:52:41;95565.56;;;3.30;100.00
19457;BME280;9867;48.094;11.478;2023-02-01T07:55:09;95592.75;;;3.37;100.00
19457;BME280;9867;48.094;11.478;2023-02-01T07:57:35;95579.38;;;3.45;100.00
19457;BME280;9867;48.094;11.478;2023-02-01T08:00:02;95578.28;;;3.48;100.00
19457;BME280;9867;48.094;11.478;2023-02-01T08:02:51;95584.69;;;3.52;100.00
19457;BME280;9867;48.094;11.478;2023-02-01T08:05:18;95611.63;;;3.53;100.00
19457;BME280;9867;48.094;11.478;2023-02-01T08:07:48;95587.25;;;3.69;100.00
19457;BME280;9867;48.094;11.478;2023-02-01T08:10:15;95596.41;;;3.98;100.00
19457;BME280;9867;48.094;11.478;2023-02-01T08:12:42;95659.59;;;4.19;100.00
19457;BME280;9867;48.094;11.478;2023-02-01T08:15:10;95608.66;;;4.20;100.00
19457;BME280;9867;48.094;11.478;2023-02-01T08:17:36;95628.75;;;4.14;100.00
19457;BME280;9867;48.094;11.478;2023-02-01T08:20:03;95637.44;;;3.93;100.00
19457;BME280;9867;48.094;11.478;2023-02-01T08:22:32;95628.78;;;3.86;100.00
19457;BME280;9867;48.094;11.478;2023-02-01T08:24:58;95618.78;;;3.85;100.00
19457;BME280;9867;48.094;11.478;2023-02-01T08:27:27;95623.84;;;3.85;100.00
19457;BME280;9867;48.094;11.478;2023-02-01T08:29:53;95627.84;;;3.87;100.00
19457;BME280;9867;48.094;11.478;2023-02-01T08:32:20;95620.09;;;3.89;100.00
19457;BME280;9867;48.094;11.478;2023-02-01T08:34:46;95629.41;;;3.98;100.00
19457;BME280;9867;48.094;11.478;2023-02-01T08:37:12;95650.81;;;4.13;100.00
19457;BME280;9867;48.094;11.478;2023-02-01T08:39:39;95647.22;;;4.06;100.00
19457;BME280;9867;48.094;11.478;2023-02-01T08:42:10;95648.41;;;4.11;100.00
19457;BME280;9867;48.094;11.478;2023-02-01T08:44:54;95637.16;;;4.14;100.00
19457;BME280;9867;48.094;11.478;2023-02-01T08:47:20;95636.31;;;4.23;100.00
19457;BME280;9867;48.094;11.478;2023-02-01T08:49:47;95636.94;;;4.25;100.00
19457;BME280;9867;48.094;11.478;2023-02-01T08:52:13;95645.28;;;4.18;100.00
19457;BME280;9867;48.094;11.478;2023-02-01T08:54:43;95637.16;;;4.14;100.00
19457;BME280;9867;48.094;11.478;2023-02-01T08:57:09;95617.78;;;4.13;100.00
19457;BME280;9867;48.094;11.478;2023-02-01T08:59:36;95638.63;;;4.34;100.00
19457;BME280;9867;48.094;11.478;2023-02-01T09:02:02;95630.56;;;4.21;100.00
19457;BME280;9867;48.094;11.478;2023-02-01T09:04:29;95634.34;;;4.17;100.00
19457;BME280;9867;48.094;11.478;2023-02-01T09:06:55;95649.28;;;4.20;100.00
19457;BME280;9867;48.094;11.478;2023-02-01T09:09:23;95623.81;;;4.30;100.00
19457;BME280;9867;48.094;11.478;2023-02-01T09:11:50;95624.47;;;4.32;100.00
19457;BME280;9867;48.094;11.478;2023-02-01T09:14:16;95664.09;;;4.25;100.00
19457;BME280;9867;48.094;11.478;2023-02-01T09:16:43;95652.13;;;4.35;100.00
19457;BME280;9867;48.094;11.478;2023-02-01T09:19:09;95669.53;;;4.30;100.00
19457;BME280;9867;48.094;11.478;2023-02-01T09:21:53;95660.38;;;4.37;100.00
19457;BME280;9867;48.094;11.478;2023-02-01T09:24:19;95663.28;;;4.42;100.00
19457;BME280;9867;48.094;11.478;2023-02-01T09:26:45;95648.78;;;4.34;100.00
19457;BME280;9867;48.094;11.478;2023-02-01T09:29:12;95656.31;;;4.26;100.00
19457;BME280;9867;48.094;11.478;2023-02-01T09:31:39;95642.25;;;4.32;100.00
19457;BME280;9867;48.094;11.478;2023-02-01T09:34:12;95654.66;;;4.35;100.00
19457;BME280;9867;48.094;11.478;2023-02-01T09:36:38;95642.63;;;4.37;100.00
19457;BME280;9867;48.094;11.478;2023-02-01T09:39:05;95653.00;;;4.43;100.00
19457;BME280;9867;48.094;11.478;2023-02-01T09:41:42;95638.41;;;4.45;100.00
19457;BME280;9867;48.094;11.478;2023-02-01T09:44:22;95652.06;;;4.44;100.00
19457;BME280;9867;48.094;11.478;2023-02-01T09:46:55;95632.38;;;4.47;100.00
19457;BME280;9867;48.094;11.478;2023-02-01T09:49:27;95625.84;;;4.44;100.00
19457;BME280;9867;48.094;11.478;2023-02-01T09:51:55;95674.41;;;4.41;100.00
19457;BME280;9867;48.094;11.478;2023-02-01T09:54:25;95631.22;;;4.41;100.00
19457;BME280;9867;48.094;11.478;2023-02-01T09:56:53;95651.25;;;4.44;100.00
19457;BME280;9867;48.094;11.478;2023-02-01T09:59:34;95630.44;;;4.40;100.00
19457;BME280;9867;48.094;11.478;2023-02-01T10:02:11;95659.38;;;4.48;100.00
19457;BME280;9867;48.094;11.478;2023-02-01T10:04:38;95626.50;;;4.46;100.00
19457;BME280;9867;48.094;11.478;2023-02-01T10:07:20;95659.81;;;4.43;100.00
19457;BME280;9867;48.094;11.478;2023-02-01T10:10:00;95639.78;;;4.40;100.00
19457;BME280;9867;48.094;11.478;2023-02-01T10:15:52;95636.66;;;4.46;100.00
19457;BME280;9867;48.094;11.478;2023-02-01T10:18:46;95625.06;;;4.43;100.00
19457;BME280;9867;48.094;11.478;2023-02-01T10:21:23;95646.69;;;4.48;100.00
19457;BME280;9867;48.094;11.478;2023-02-01T10:24:08;95643.75;;;4.60;100.00
19457;BME280;9867;48.094;11.478;2023-02-01T10:26:45;95631.22;;;4.41;100.00
19457;BME280;9867;48.094;11.478;2023-02-01T10:29:16;95645.16;;;4.37;100.00
19457;BME280;9867;48.094;11.478;2023-02-01T10:31:45;95643.56;;;4.36;100.00
19457;BME280;9867;48.094;11.478;2023-02-01T10:34:17;95649.66;;;4.43;100.00
19457;BME280;9867;48.094;11.478;2023-02-01T10:36:53;95652.19;;;4.43;100.00
19457;BME280;9867;48.094;11.478;2023-02-01T10:39:21;95640.50;;;4.32;100.00
19457;BME280;9867;48.094;11.478;2023-02-01T10:41:48;95663.00;;;4.27;100.00
19457;BME280;9867;48.094;11.478;2023-02-01T10:44:17;95652.03;;;4.27;100.00
19457;BME280;9867;48.094;11.478;2023-02-01T10:46:45;95684.34;;;4.34;100.00
19457;BME280;9867;48.094;11.478;2023-02-01T10:49:17;95657.06;;;4.36;100.00
19457;BME280;9867;48.094;11.478;2023-02-01T10:51:47;95659.38;;;4.30;100.00
19457;BME280;9867;48.094;11.478;2023-02-01T10:54:19;95668.28;;;4.34;100.00
19457;BME280;9867;48.094;11.478;2023-02-01T10:56:46;95664.44;;;4.30;100.00
19457;BME280;9867;48.094;11.478;2023-02-01T10:59:16;95671.41;;;4.28;100.00
19457;BME280;9867;48.094;11.478;2023-02-01T11:01:46;95661.69;;;4.23;100.00
19457;BME280;9867;48.094;11.478;2023-02-01T11:04:14;95670.97;;;4.15;100.00
19457;BME280;9867;48.094;11.478;2023-02-01T11:06:44;95647.59;;;4.11;100.00
19457;BME280;9867;48.094;11.478;2023-02-01T11:09:17;95685.81;;;4.09;100.00
19457;BME280;9867;48.094;11.478;2023-02-01T11:11:54;95663.50;;;4.13;100.00
19457;BME280;9867;48.094;11.478;2023-02-01T11:14:32;95659.44;;;4.20;100.00
19457;BME280;9867;48.094;11.478;2023-02-01T11:17:03;95682.81;;;4.24;100.00
19457;BME280;9867;48.094;11.478;2023-02-01T11:19:44;95686.88;;;4.17;100.00
19457;BME280;9867;48.094;11.478;2023-02-01T11:22:12;95689.13;;;4.20;100.00
19457;BME280;9867;48.094;11.478;2023-02-01T11:24:40;95677.22;;;4.20;100.00
19457;BME280;9867;48.094;11.478;2023-02-01T11:27:14;95673.59;;;4.23;100.00
19457;BME280;9867;48.094;11.478;2023-02-01T11:29:55;95662.41;;;4.16;100.00
19457;BME280;9867;48.094;11.478;2023-02-01T11:32:24;95691.56;;;4.11;100.00
19457;BME280;9867;48.094;11.478;2023-02-01T11:34:54;95677.28;;;4.10;100.00
19457;BME280;9867;48.094;11.478;2023-02-01T11:37:23;95686.19;;;4.15;100.00
19457;BME280;9867;48.094;11.478;2023-02-01T11:39:55;95693.81;;;4.15;100.00
19457;BME280;9867;48.094;11.478;2023-02-01T11:42:22;95683.81;;;4.13;100.00
19457;BME280;9867;48.094;11.478;2023-02-01T11:44:48;95698.91;;;4.15;100.00
19457;BME280;9867;48.094;11.478;2023-02-01T11:47:24;95693.16;;;4.13;100.00
19457;BME280;9867;48.094;11.478;2023-02-01T11:49:52;95706.78;;;4.11;100.00
19457;BME280;9867;48.094;11.478;2023-02-01T11:52:37;95708.09;;;3.98;100.00
19457;BME280;9867;48.094;11.478;2023-02-01T11:55:17;95703.28;;;3.95;100.00
19457;BME280;9867;48.094;11.478;2023-02-01T11:57:55;95688.84;;;3.95;100.00
19457;BME280;9867;48.094;11.478;2023-02-01T12:00:49;95697.13;;;3.97;100.00
19457;BME280;9867;48.094;11.478;2023-02-01T12:06:44;95695.25;;;3.99;100.00
19457;BME280;9867;48.094;11.478;2023-02-01T12:09:24;95682.69;;;3.98;100.00
19457;BME280;9867;48.094;11.478;2023-02-01T12:12:01;95673.09;;;3.92;100.00
19457;BME280;9867;48.094;11.478;2023-02-01T12:14:51;95669.63;;;3.93;100.00
19457;BME280;9867;48.094;11.478;2023-02-01T12:17:55;95655.44;;;4.00;100.00
19457;BME280;9867;48.094;11.478;2023-02-01T12:23:33;95656.44;;;4.07;100.00
19457;BME280;9867;48.094;11.478;2023-02-01T12:26:19;95643.56;;;4.00;100.00
19457;BME280;9867;48.094;11.478;2023-02-01T12:29:02;95644.91;;;3.95;100.00
19457;BME280;9867;48.094;11.478;2023-02-01T12:31:52;95636.41;;;3.86;100.00
19457;BME280;9867;48.094;11.478;2023-02-01T12:34:36;95634.53;;;3.88;100.00
19457;BME280;9867;48.094;11.478;2023-02-01T12:37:11;95620.38;;;3.86;100.00
19457;BME280;9867;48.094;11.478;2023-02-01T12:39:46;95636.53;;;3.85;100.00
19457;BME280;9867;48.094;11.478;2023-02-01T12:42:16;95622.63;;;3.89;100.00
19457;BME280;9867;48.094;11.478;2023-02-01T12:44:48;95615.97;;;3.88;100.00
19457;BME280;9867;48.094;11.478;2023-02-01T12:47:21;95617.13;;;3.93;100.00
19457;BME280;9867;48.094;11.478;2023-02-01T12:49:54;95635.28;;;3.98;100.00
19457;BME280;9867;48.094;11.478;2023-02-01T12:52:35;95632.47;;;4.01;100.00
19457;BME280;9867;48.094;11.478;2023-02-01T12:55:09;95635.34;;;4.06;100.00
19457;BME280;9867;48.094;11.478;2023-02-01T12:57:42;95620.09;;;4.06;100.00
19457;BME280;9867;48.094;11.478;2023-02-01T13:00:18;95619.31;;;4.06;100.00
19457;BME280;9867;48.094;11.478;2023-02-01T13:03:17;95596.31;;;4.07;100.00
19457;BME280;9867;48.094;11.478;2023-02-01T13:05:53;95604.44;;;4.11;100.00
19457;BME280;9867;48.094;11.478;2023-02-01T13:08:25;95599.00;;;4.06;100.00
19457;BME280;9867;48.094;11.478;2023-02-01T13:10:58;95585.44;;;4.15;100.00
19457;BME280;9867;48.094;11.478;2023-02-01T13:13:32;95608.44;;;4.14;100.00
19457;BME280;9867;48.094;11.478;2023-02-01T13:16:14;95585.59;;;4.14;100.00
19457;BME280;9867;48.094;11.478;2023-02-01T13:18:47;95598.84;;;4.07;100.00
19457;BME280;9867;48.094;11.478;2023-02-01T13:21:19;95576.94;;;4.06;100.00
19457;BME280;9867;48.094;11.478;2023-02-01T13:23:48;95590.00;;;4.11;100.00
19457;BME280;9867;48.094;11.478;2023-02-01T13:26:16;95584.28;;;4.09;100.00
19457;BME280;9867;48.094;11.478;2023-02-01T13:28:45;95577.47;;;4.10;100.00
19457;BME280;9867;48.094;11.478;2023-02-01T13:34:40;95578.84;;;4.04;100.00